PWSweather.com
Personal Weather Stations
Station Observations
ARECO747
Argentina , San Antonio ArecoAR Bs.As

Argentina San Antonio ArecoAR Bs.As

Lat: -34.24447275818, Lon: -59.47654187679

Elevation: 102

Station Type: InformaciĆ³n generada con nuevo Microchip Ethernet conectado a estaciĆ³n WH1081

http://www.meteostar.com.ar

High Low Average
Temperature 78.3°F25.7°C 55.0°F12.8°C 65.9°F18.8°C
Dew Point 54.3°F12.4°C 48.2°F9.0°C 51.1°F10.6°C
Winds 11.4 mph 18.3 kmh Calm Calm 5.0 mph SE8.0 kmh SE
Wind Gusts 19.0 mph30.6 kmh -- 10.0 mph16.1 kmh
Humidity 80% 41% 60%
Pressure 30.16 in1021.3 mb 30.05 in1017.6 mb -
Precipitation 0.15 in3.8 mm - -
Hour Temp Dew Point Humidity Winds Wind Gusts Pressure Precip Precip Rate Daily Precip Total
12:03 AM 62.1°F16.7°C 49.3°F9.6°C 63% 5.4 mph SE8.7 kmh SE 9.2 mph14.8 kmh 30.14 in1020.7 mb 0.00 in0.0 mm 0.00 in0.0 mm 0.00 in0.0 mm
12:08 AM 62.1°F16.7°C 49.3°F9.6°C 63% 7.6 mph SE12.2 kmh SE 11.4 mph18.3 kmh 30.14 in1020.7 mb 0.00 in0.0 mm 0.00 in0.0 mm 0.00 in0.0 mm
12:13 AM 62.1°F16.7°C 49.3°F9.6°C 63% 4.5 mph SE7.2 kmh SE 11.4 mph18.3 kmh 30.14 in1020.7 mb 0.00 in0.0 mm 0.00 in0.0 mm 0.00 in0.0 mm
12:18 AM 61.5°F16.4°C 48.7°F9.3°C 63% 2.2 mph NE3.5 kmh NE 11.4 mph18.3 kmh 30.14 in1020.7 mb 0.00 in0.0 mm 0.00 in0.0 mm 0.00 in0.0 mm
12:23 AM 61.5°F16.4°C 48.7°F9.3°C 63% 3.8 mph S6.1 kmh S 8.3 mph13.4 kmh 30.14 in1020.7 mb 0.00 in0.0 mm 0.00 in0.0 mm 0.00 in0.0 mm
12:29 AM 61.5°F16.4°C 48.7°F9.3°C 63% 3.1 mph S5.0 kmh S 8.3 mph13.4 kmh 30.14 in1020.7 mb 0.00 in0.0 mm 0.00 in0.0 mm 0.00 in0.0 mm
12:34 AM 61.5°F16.4°C 49.3°F9.6°C 64% 4.5 mph SW7.2 kmh SW 10.7 mph17.2 kmh 30.14 in1020.7 mb 0.00 in0.0 mm 0.00 in0.0 mm 0.00 in0.0 mm
12:39 AM 61.3°F16.3°C 49.1°F9.5°C 64% 6.0 mph E9.7 kmh E 9.2 mph14.8 kmh 30.14 in1020.7 mb 0.00 in0.0 mm 0.00 in0.0 mm 0.00 in0.0 mm
12:44 AM 61.0°F16.1°C 49.1°F9.5°C 65% 3.1 mph SE5.0 kmh SE 13.0 mph20.9 kmh 30.14 in1020.7 mb 0.00 in0.0 mm 0.00 in0.0 mm 0.00 in0.0 mm
12:49 AM 61.0°F16.1°C 49.1°F9.5°C 65% 4.5 mph E7.2 kmh E 9.8 mph15.8 kmh 30.14 in1020.7 mb 0.00 in0.0 mm 0.00 in0.0 mm 0.00 in0.0 mm
12:54 AM 60.8°F16.0°C 49.5°F9.7°C 66% 4.5 mph E7.2 kmh E 9.2 mph14.8 kmh 30.14 in1020.7 mb 0.00 in0.0 mm 0.00 in0.0 mm 0.00 in0.0 mm
01:00 AM 60.8°F16.0°C 49.5°F9.7°C 66% 2.2 mph E3.5 kmh E 9.2 mph14.8 kmh 30.14 in1020.7 mb 0.00 in0.0 mm 0.00 in0.0 mm 0.00 in0.0 mm
01:05 AM 60.6°F15.9°C 49.6°F9.8°C 67% 3.1 mph S5.0 kmh S 8.3 mph13.4 kmh 30.14 in1020.7 mb 0.00 in0.0 mm 0.00 in0.0 mm 0.00 in0.0 mm
01:10 AM 60.4°F15.8°C 49.5°F9.7°C 67% 3.1 mph SE5.0 kmh SE 9.8 mph15.8 kmh 30.14 in1020.7 mb 0.00 in0.0 mm 0.00 in0.0 mm 0.00 in0.0 mm
01:15 AM 60.1°F15.6°C 49.5°F9.7°C 68% 4.5 mph SSE7.2 kmh SSE 9.2 mph14.8 kmh 30.14 in1020.7 mb 0.00 in0.0 mm 0.00 in0.0 mm 0.00 in0.0 mm
01:20 AM 60.1°F15.6°C 49.5°F9.7°C 68% 3.8 mph S6.1 kmh S 10.7 mph17.2 kmh 30.15 in1021.0 mb 0.00 in0.0 mm 0.00 in0.0 mm 0.00 in0.0 mm
01:25 AM 59.9°F15.5°C 49.6°F9.8°C 69% 4.5 mph SSE7.2 kmh SSE 9.2 mph14.8 kmh 30.15 in1021.0 mb 0.00 in0.0 mm 0.00 in0.0 mm 0.00 in0.0 mm
01:31 AM 59.7°F15.4°C 49.5°F9.7°C 69% 4.5 mph SE7.2 kmh SE 8.3 mph13.4 kmh 30.16 in1021.3 mb 0.00 in0.0 mm 0.00 in0.0 mm 0.00 in0.0 mm
01:36 AM 59.7°F15.4°C 49.5°F9.7°C 69% 3.8 mph SE6.1 kmh SE 8.3 mph13.4 kmh 30.16 in1021.3 mb 0.00 in0.0 mm 0.00 in0.0 mm 0.00 in0.0 mm
01:41 AM 59.5°F15.3°C 49.3°F9.6°C 69% 4.5 mph S7.2 kmh S 6.9 mph11.1 kmh 30.16 in1021.3 mb 0.00 in0.0 mm 0.00 in0.0 mm 0.00 in0.0 mm
01:46 AM 59.4°F15.2°C 49.1°F9.5°C 69% 5.4 mph S8.7 kmh S 12.1 mph19.5 kmh 30.16 in1021.3 mb 0.00 in0.0 mm 0.00 in0.0 mm 0.00 in0.0 mm
01:51 AM 59.4°F15.2°C 49.1°F9.5°C 69% 3.8 mph SE6.1 kmh SE 12.1 mph19.5 kmh 30.15 in1021.0 mb 0.00 in0.0 mm 0.00 in0.0 mm 0.00 in0.0 mm
01:56 AM 59.2°F15.1°C 49.1°F9.5°C 69% 5.4 mph SE8.7 kmh SE 9.2 mph14.8 kmh 30.15 in1021.0 mb 0.00 in0.0 mm 0.00 in0.0 mm 0.00 in0.0 mm
02:02 AM 59.2°F15.1°C 49.5°F9.7°C 70% 4.5 mph E7.2 kmh E -- 30.15 in1021.0 mb 0.00 in0.0 mm 0.00 in0.0 mm 0.00 in0.0 mm
02:05 AM 59.2°F15.1°C 49.5°F9.7°C 70% 4.5 mph E7.2 kmh E -- 30.15 in1021.0 mb 0.00 in0.0 mm 0.00 in0.0 mm 0.00 in0.0 mm
02:10 AM 58.8°F14.9°C 49.5°F9.7°C 71% 3.8 mph S6.1 kmh S 8.3 mph13.4 kmh 30.14 in1020.7 mb 0.00 in0.0 mm 0.00 in0.0 mm 0.00 in0.0 mm
02:15 AM 58.6°F14.8°C 49.3°F9.6°C 71% 3.8 mph E6.1 kmh E 9.2 mph14.8 kmh 30.14 in1020.7 mb 0.02 in0.5 mm 0.24 in6.1 mm 0.02 in0.5 mm
02:20 AM 58.3°F14.6°C 49.3°F9.6°C 72% 7.6 mph SW12.2 kmh SW 11.4 mph18.3 kmh 30.14 in1020.7 mb 0.02 in0.5 mm 0.00 in0.0 mm 0.02 in0.5 mm
02:25 AM 58.3°F14.6°C 49.3°F9.6°C 72% 6.9 mph SE11.1 kmh SE 9.8 mph15.8 kmh 30.14 in1020.7 mb 0.02 in0.5 mm 0.00 in0.0 mm 0.02 in0.5 mm
02:30 AM 58.1°F14.5°C 49.5°F9.7°C 73% 3.1 mph SE5.0 kmh SE 9.8 mph15.8 kmh 30.15 in1021.0 mb 0.02 in0.5 mm 0.00 in0.0 mm 0.02 in0.5 mm
02:36 AM 57.9°F14.4°C 49.3°F9.6°C 73% 4.5 mph SE7.2 kmh SE 9.2 mph14.8 kmh 30.16 in1021.3 mb 0.03 in0.8 mm 0.10 in2.5 mm 0.03 in0.8 mm
02:41 AM 57.7°F14.3°C 49.1°F9.5°C 73% 3.1 mph SE5.0 kmh SE 9.2 mph14.8 kmh 30.16 in1021.3 mb 0.04 in1.0 mm 0.12 in3.0 mm 0.04 in1.0 mm
02:46 AM 57.6°F14.2°C 49.3°F9.6°C 74% 3.8 mph SE6.1 kmh SE 6.9 mph11.1 kmh 30.16 in1021.3 mb 0.06 in1.5 mm 0.24 in6.1 mm 0.06 in1.5 mm
02:51 AM 57.4°F14.1°C 49.1°F9.5°C 74% 3.8 mph E6.1 kmh E 7.6 mph12.2 kmh 30.16 in1021.3 mb 0.07 in1.8 mm 0.12 in3.0 mm 0.07 in1.8 mm
02:56 AM 57.4°F14.1°C 49.5°F9.7°C 75% 3.8 mph SE6.1 kmh SE 7.6 mph12.2 kmh 30.16 in1021.3 mb 0.08 in2.0 mm 0.12 in3.0 mm 0.08 in2.0 mm
03:01 AM 57.2°F14.0°C 49.3°F9.6°C 75% 3.8 mph S6.1 kmh S 5.4 mph8.7 kmh 30.16 in1021.3 mb 0.08 in2.0 mm 0.00 in0.0 mm 0.08 in2.0 mm
03:07 AM 57.2°F14.0°C 49.3°F9.6°C 75% 4.5 mph SE7.2 kmh SE 7.6 mph12.2 kmh 30.15 in1021.0 mb 0.10 in2.5 mm 0.20 in5.1 mm 0.10 in2.5 mm
03:12 AM 57.0°F13.9°C 49.8°F9.9°C 77% 3.8 mph SE6.1 kmh SE 7.6 mph12.2 kmh 30.15 in1021.0 mb 0.09 in2.3 mm 0.00 in0.0 mm 0.11 in2.8 mm
03:17 AM 56.8°F13.8°C 49.6°F9.8°C 77% 3.8 mph S6.1 kmh S 6.9 mph11.1 kmh 30.15 in1021.0 mb 0.09 in2.3 mm 0.00 in0.0 mm 0.11 in2.8 mm
03:22 AM 56.7°F13.7°C 49.5°F9.7°C 77% 3.1 mph SE5.0 kmh SE 7.6 mph12.2 kmh 30.15 in1021.0 mb 0.11 in2.8 mm 0.24 in6.1 mm 0.12 in3.0 mm
03:27 AM 56.7°F13.7°C 49.5°F9.7°C 77% 3.8 mph SE6.1 kmh SE 8.3 mph13.4 kmh 30.14 in1020.7 mb 0.11 in2.8 mm 0.00 in0.0 mm 0.12 in3.0 mm
03:32 AM 56.5°F13.6°C 49.6°F9.8°C 78% 3.8 mph SE6.1 kmh SE 8.3 mph13.4 kmh 30.14 in1020.7 mb 0.11 in2.8 mm 0.00 in0.0 mm 0.12 in3.0 mm
03:38 AM 56.3°F13.5°C 49.5°F9.7°C 78% 3.1 mph SE5.0 kmh SE 8.3 mph13.4 kmh 30.14 in1020.7 mb 0.11 in2.8 mm 0.00 in0.0 mm 0.14 in3.6 mm
03:43 AM 56.3°F13.5°C 49.5°F9.7°C 78% 3.1 mph SW5.0 kmh SW 9.2 mph14.8 kmh 30.14 in1020.7 mb 0.08 in2.0 mm 0.00 in0.0 mm 0.14 in3.6 mm
03:48 AM 56.3°F13.5°C 49.5°F9.7°C 78% 5.4 mph SE8.7 kmh SE 10.7 mph17.2 kmh 30.13 in1020.3 mb 0.08 in2.0 mm 0.00 in0.0 mm 0.14 in3.6 mm
03:53 AM 56.1°F13.4°C 49.3°F9.6°C 78% 4.5 mph SE7.2 kmh SE 8.3 mph13.4 kmh 30.12 in1020.0 mb 0.06 in1.5 mm 0.00 in0.0 mm 0.14 in3.6 mm
03:58 AM 55.9°F13.3°C 49.1°F9.5°C 78% 6.0 mph NE9.7 kmh NE 8.3 mph13.4 kmh 30.12 in1020.0 mb 0.06 in1.5 mm 0.00 in0.0 mm 0.14 in3.6 mm
04:03 AM 55.8°F13.2°C 48.9°F9.4°C 78% 5.4 mph E8.7 kmh E 9.2 mph14.8 kmh 30.12 in1020.0 mb 0.04 in1.0 mm 0.00 in0.0 mm 0.14 in3.6 mm
04:09 AM 55.8°F13.2°C 48.9°F9.4°C 78% 3.8 mph SE6.1 kmh SE 9.8 mph15.8 kmh 30.12 in1020.0 mb 0.04 in1.0 mm 0.00 in0.0 mm 0.15 in3.8 mm
04:19 AM 55.4°F13.0°C 48.7°F9.3°C 78% 5.4 mph E8.7 kmh E 11.4 mph18.3 kmh 30.13 in1020.3 mb 0.03 in0.8 mm 0.00 in0.0 mm 0.15 in3.8 mm
04:24 AM 55.8°F13.2°C 48.9°F9.4°C 78% 7.6 mph ESE12.2 kmh ESE 10.7 mph17.2 kmh 30.13 in1020.3 mb 0.03 in0.8 mm 0.00 in0.0 mm 0.15 in3.8 mm
04:29 AM 55.8°F13.2°C 48.9°F9.4°C 78% 9.2 mph ESE14.8 kmh ESE 13.6 mph21.9 kmh 30.11 in1019.6 mb 0.03 in0.8 mm 0.00 in0.0 mm 0.15 in3.8 mm
04:34 AM 55.4°F13.0°C 48.7°F9.3°C 78% 5.4 mph E8.7 kmh E 13.6 mph21.9 kmh 30.10 in1019.3 mb 0.01 in0.3 mm 0.00 in0.0 mm 0.15 in3.8 mm
04:40 AM 55.4°F13.0°C 48.7°F9.3°C 78% 6.9 mph SE11.1 kmh SE 12.1 mph19.5 kmh 30.11 in1019.6 mb 0.01 in0.3 mm 0.00 in0.0 mm 0.15 in3.8 mm
04:45 AM 55.4°F13.0°C 48.7°F9.3°C 78% 3.8 mph E6.1 kmh E 9.8 mph15.8 kmh 30.11 in1019.6 mb 0.01 in0.3 mm 0.00 in0.0 mm 0.15 in3.8 mm
04:50 AM 55.4°F13.0°C 48.7°F9.3°C 78% 3.8 mph SE6.1 kmh SE 9.2 mph14.8 kmh 30.11 in1019.6 mb 0.01 in0.3 mm 0.00 in0.0 mm 0.15 in3.8 mm
04:55 AM 55.4°F13.0°C 48.7°F9.3°C 78% 3.8 mph SE6.1 kmh SE 9.8 mph15.8 kmh 30.10 in1019.3 mb 0.01 in0.3 mm 0.00 in0.0 mm 0.15 in3.8 mm
05:00 AM 55.4°F13.0°C 48.7°F9.3°C 78% 5.4 mph S8.7 kmh S 8.3 mph13.4 kmh 30.10 in1019.3 mb 0.01 in0.3 mm 0.00 in0.0 mm 0.15 in3.8 mm
05:05 AM 55.4°F13.0°C 48.7°F9.3°C 78% 4.5 mph ESE7.2 kmh ESE 7.6 mph12.2 kmh 30.10 in1019.3 mb 0.01 in0.3 mm 0.00 in0.0 mm 0.15 in3.8 mm
05:11 AM 55.4°F13.0°C 48.7°F9.3°C 78% 4.5 mph SE7.2 kmh SE 9.8 mph15.8 kmh 30.11 in1019.6 mb 0.00 in0.0 mm 0.00 in0.0 mm 0.15 in3.8 mm
05:16 AM 55.4°F13.0°C 48.7°F9.3°C 78% 6.0 mph E9.7 kmh E 7.6 mph12.2 kmh 30.11 in1019.6 mb 0.00 in0.0 mm 0.00 in0.0 mm 0.15 in3.8 mm
05:21 AM 55.4°F13.0°C 48.7°F9.3°C 78% 3.8 mph S6.1 kmh S 7.6 mph12.2 kmh 30.10 in1019.3 mb 0.00 in0.0 mm 0.00 in0.0 mm 0.15 in3.8 mm
05:26 AM 55.4°F13.0°C 48.7°F9.3°C 78% 1.6 mph SE2.6 kmh SE 5.4 mph8.7 kmh 30.11 in1019.6 mb 0.00 in0.0 mm 0.00 in0.0 mm 0.15 in3.8 mm
05:31 AM 55.4°F13.0°C 48.7°F9.3°C 78% 3.1 mph S5.0 kmh S 6.9 mph11.1 kmh 30.11 in1019.6 mb 0.00 in0.0 mm 0.00 in0.0 mm 0.15 in3.8 mm
05:36 AM 55.4°F13.0°C 48.7°F9.3°C 78% 4.5 mph S7.2 kmh S 7.6 mph12.2 kmh 30.11 in1019.6 mb 0.00 in0.0 mm 0.00 in0.0 mm 0.15 in3.8 mm
05:42 AM 55.4°F13.0°C 48.7°F9.3°C 78% 6.9 mph SSE11.1 kmh SSE 8.3 mph13.4 kmh 30.11 in1019.6 mb 0.00 in0.0 mm 0.00 in0.0 mm 0.15 in3.8 mm
05:47 AM 55.2°F12.9°C 48.7°F9.3°C 79% 6.9 mph S11.1 kmh S 9.8 mph15.8 kmh 30.11 in1019.6 mb 0.00 in0.0 mm 0.00 in0.0 mm 0.15 in3.8 mm
05:52 AM 55.2°F12.9°C 49.1°F9.5°C 80% 3.1 mph S5.0 kmh S 9.8 mph15.8 kmh 30.12 in1020.0 mb 0.00 in0.0 mm 0.00 in0.0 mm 0.15 in3.8 mm
05:57 AM 55.2°F12.9°C 49.1°F9.5°C 80% 7.6 mph S12.2 kmh S 12.1 mph19.5 kmh 30.10 in1019.3 mb 0.00 in0.0 mm 0.00 in0.0 mm 0.15 in3.8 mm
06:02 AM 55.0°F12.8°C 48.9°F9.4°C 80% 5.4 mph SSW8.7 kmh SSW 12.1 mph19.5 kmh 30.09 in1019.0 mb 0.00 in0.0 mm 0.00 in0.0 mm 0.15 in3.8 mm
06:07 AM 55.0°F12.8°C 48.9°F9.4°C 80% 5.4 mph S8.7 kmh S 8.3 mph13.4 kmh 30.11 in1019.6 mb 0.00 in0.0 mm 0.00 in0.0 mm 0.15 in3.8 mm
06:13 AM 55.0°F12.8°C 48.9°F9.4°C 80% 6.9 mph S11.1 kmh S 9.2 mph14.8 kmh 30.12 in1020.0 mb 0.00 in0.0 mm 0.00 in0.0 mm 0.15 in3.8 mm
06:18 AM 55.0°F12.8°C 48.9°F9.4°C 80% 4.5 mph S7.2 kmh S 9.2 mph14.8 kmh 30.11 in1019.6 mb 0.00 in0.0 mm 0.00 in0.0 mm 0.15 in3.8 mm
06:23 AM 55.0°F12.8°C 48.9°F9.4°C 80% 6.0 mph S9.7 kmh S 9.8 mph15.8 kmh 30.11 in1019.6 mb 0.00 in0.0 mm 0.00 in0.0 mm 0.15 in3.8 mm
06:28 AM 55.2°F12.9°C 48.7°F9.3°C 79% 3.8 mph S6.1 kmh S 7.6 mph12.2 kmh 30.13 in1020.3 mb 0.00 in0.0 mm 0.00 in0.0 mm 0.15 in3.8 mm
06:33 AM 55.2°F12.9°C 48.7°F9.3°C 79% 6.0 mph S9.7 kmh S 7.6 mph12.2 kmh 30.13 in1020.3 mb 0.00 in0.0 mm 0.00 in0.0 mm 0.15 in3.8 mm
06:38 AM 55.4°F13.0°C 48.7°F9.3°C 78% 3.8 mph S6.1 kmh S 8.3 mph13.4 kmh 30.13 in1020.3 mb 0.00 in0.0 mm 0.00 in0.0 mm 0.15 in3.8 mm
06:44 AM 55.4°F13.0°C 48.7°F9.3°C 78% 5.4 mph W8.7 kmh W 7.6 mph12.2 kmh 30.13 in1020.3 mb 0.00 in0.0 mm 0.00 in0.0 mm 0.15 in3.8 mm
06:49 AM 55.4°F13.0°C 48.4°F9.1°C 77% 3.8 mph SE6.1 kmh SE 6.0 mph9.7 kmh 30.13 in1020.3 mb 0.00 in0.0 mm 0.00 in0.0 mm 0.15 in3.8 mm
06:54 AM 55.8°F13.2°C 48.7°F9.3°C 77% 2.2 mph SE3.5 kmh SE 6.9 mph11.1 kmh 30.12 in1020.0 mb 0.00 in0.0 mm 0.00 in0.0 mm 0.15 in3.8 mm
06:59 AM 55.8°F13.2°C 48.4°F9.1°C 76% 3.1 mph ESE5.0 kmh ESE 6.0 mph9.7 kmh 30.12 in1020.0 mb 0.00 in0.0 mm 0.00 in0.0 mm 0.15 in3.8 mm
07:04 AM 55.9°F13.3°C 48.6°F9.2°C 76% 3.1 mph SE5.0 kmh SE 6.0 mph9.7 kmh 30.12 in1020.0 mb 0.00 in0.0 mm 0.00 in0.0 mm 0.15 in3.8 mm
07:09 AM 56.1°F13.4°C 48.7°F9.3°C 76% 3.1 mph E5.0 kmh E 6.0 mph9.7 kmh 30.12 in1020.0 mb 0.00 in0.0 mm 0.00 in0.0 mm 0.15 in3.8 mm
07:15 AM 56.3°F13.5°C 48.6°F9.2°C 75% 2.2 mph E3.5 kmh E 6.0 mph9.7 kmh 30.11 in1019.6 mb 0.00 in0.0 mm 0.00 in0.0 mm 0.15 in3.8 mm
07:20 AM 56.5°F13.6°C 48.7°F9.3°C 75% 6.0 mph S9.7 kmh S 9.2 mph14.8 kmh 30.12 in1020.0 mb 0.00 in0.0 mm 0.00 in0.0 mm 0.15 in3.8 mm
07:25 AM 56.3°F13.5°C 48.6°F9.2°C 75% 6.9 mph SE11.1 kmh SE 12.1 mph19.5 kmh 30.11 in1019.6 mb 0.00 in0.0 mm 0.00 in0.0 mm 0.15 in3.8 mm
07:30 AM 56.5°F13.6°C 48.4°F9.1°C 74% 4.5 mph S7.2 kmh S 12.1 mph19.5 kmh 30.11 in1019.6 mb 0.00 in0.0 mm 0.00 in0.0 mm 0.15 in3.8 mm
07:35 AM 58.5°F14.7°C 49.8°F9.9°C 73% 4.5 mph SE7.2 kmh SE 7.6 mph12.2 kmh 30.11 in1019.6 mb 0.00 in0.0 mm 0.00 in0.0 mm 0.15 in3.8 mm
07:41 AM 59.5°F15.3°C 49.8°F9.9°C 70% 6.0 mph SE9.7 kmh SE 9.2 mph14.8 kmh 30.11 in1019.6 mb 0.00 in0.0 mm 0.00 in0.0 mm 0.15 in3.8 mm
07:46 AM 59.5°F15.3°C 49.3°F9.6°C 69% 6.9 mph SE11.1 kmh SE 10.7 mph17.2 kmh 30.11 in1019.6 mb 0.00 in0.0 mm 0.00 in0.0 mm 0.15 in3.8 mm
07:51 AM 60.6°F15.9°C 50.4°F10.2°C 69% 6.9 mph S11.1 kmh S 12.1 mph19.5 kmh 30.11 in1019.6 mb 0.00 in0.0 mm 0.00 in0.0 mm 0.15 in3.8 mm
07:56 AM 61.5°F16.4°C 50.0°F10.0°C 66% 6.9 mph SE11.1 kmh SE 14.5 mph23.3 kmh 30.11 in1019.6 mb 0.00 in0.0 mm 0.00 in0.0 mm 0.15 in3.8 mm
08:01 AM 61.3°F16.3°C 49.1°F9.5°C 64% 9.2 mph SE14.8 kmh SE 15.9 mph25.6 kmh 30.11 in1019.6 mb 0.00 in0.0 mm 0.00 in0.0 mm 0.15 in3.8 mm
08:06 AM 61.0°F16.1°C 48.7°F9.3°C 64% 7.6 mph SE12.2 kmh SE 13.6 mph21.9 kmh 30.11 in1019.6 mb 0.00 in0.0 mm 0.00 in0.0 mm 0.15 in3.8 mm
08:12 AM 59.9°F15.5°C 48.6°F9.2°C 66% 6.9 mph S11.1 kmh S 15.2 mph24.5 kmh 30.12 in1020.0 mb 0.00 in0.0 mm 0.00 in0.0 mm 0.15 in3.8 mm
08:17 AM 60.4°F15.8°C 49.5°F9.7°C 67% 4.5 mph S7.2 kmh S 11.4 mph18.3 kmh 30.11 in1019.6 mb 0.00 in0.0 mm 0.00 in0.0 mm 0.15 in3.8 mm
08:22 AM 59.9°F15.5°C 48.9°F9.4°C 67% 6.9 mph ESE11.1 kmh ESE 12.1 mph19.5 kmh 30.11 in1019.6 mb 0.00 in0.0 mm 0.00 in0.0 mm 0.15 in3.8 mm
08:27 AM 59.4°F15.2°C 48.7°F9.3°C 68% 5.4 mph SE8.7 kmh SE 12.1 mph19.5 kmh 30.11 in1019.6 mb 0.00 in0.0 mm 0.00 in0.0 mm 0.15 in3.8 mm
08:32 AM 59.9°F15.5°C 48.9°F9.4°C 67% 3.8 mph S6.1 kmh S 12.1 mph19.5 kmh 30.12 in1020.0 mb 0.00 in0.0 mm 0.00 in0.0 mm 0.15 in3.8 mm
08:37 AM 59.2°F15.1°C 48.2°F9.0°C 67% 3.8 mph SW6.1 kmh SW 12.1 mph19.5 kmh 30.11 in1019.6 mb 0.00 in0.0 mm 0.00 in0.0 mm 0.15 in3.8 mm
08:43 AM 58.8°F14.9°C 48.7°F9.3°C 69% 3.8 mph SE6.1 kmh SE 13.0 mph20.9 kmh 30.12 in1020.0 mb 0.00 in0.0 mm 0.00 in0.0 mm 0.15 in3.8 mm
08:48 AM 58.8°F14.9°C 49.1°F9.5°C 70% 5.4 mph E8.7 kmh E 9.2 mph14.8 kmh 30.12 in1020.0 mb 0.00 in0.0 mm 0.00 in0.0 mm 0.15 in3.8 mm
08:53 AM 58.8°F14.9°C 49.1°F9.5°C 70% 4.5 mph W7.2 kmh W 10.7 mph17.2 kmh 30.12 in1020.0 mb 0.00 in0.0 mm 0.00 in0.0 mm 0.15 in3.8 mm
08:58 AM 59.5°F15.3°C 49.3°F9.6°C 69% 6.0 mph E9.7 kmh E 10.7 mph17.2 kmh 30.12 in1020.0 mb 0.00 in0.0 mm 0.00 in0.0 mm 0.15 in3.8 mm
09:03 AM 60.3°F15.7°C 49.6°F9.8°C 68% 7.6 mph SE12.2 kmh SE 15.2 mph24.5 kmh 30.12 in1020.0 mb 0.00 in0.0 mm 0.00 in0.0 mm 0.15 in3.8 mm
09:08 AM 60.8°F16.0°C 49.8°F9.9°C 67% 8.3 mph S13.4 kmh S 12.1 mph19.5 kmh 30.11 in1019.6 mb 0.00 in0.0 mm 0.00 in0.0 mm 0.15 in3.8 mm
09:14 AM 60.8°F16.0°C 48.9°F9.4°C 65% 6.0 mph SSW9.7 kmh SSW 13.0 mph20.9 kmh 30.11 in1019.6 mb 0.00 in0.0 mm 0.00 in0.0 mm 0.15 in3.8 mm
09:19 AM 60.6°F15.9°C 49.6°F9.8°C 67% 7.6 mph E12.2 kmh E 13.0 mph20.9 kmh 30.11 in1019.6 mb 0.00 in0.0 mm 0.00 in0.0 mm 0.15 in3.8 mm
09:24 AM 60.4°F15.8°C 49.5°F9.7°C 67% 4.5 mph SE7.2 kmh SE 13.0 mph20.9 kmh 30.11 in1019.6 mb 0.00 in0.0 mm 0.00 in0.0 mm 0.15 in3.8 mm
09:29 AM 60.6°F15.9°C 50.0°F10.0°C 68% 4.5 mph SSE7.2 kmh SSE 13.0 mph20.9 kmh 30.11 in1019.6 mb 0.00 in0.0 mm 0.00 in0.0 mm 0.15 in3.8 mm
09:34 AM 60.8°F16.0°C 49.5°F9.7°C 66% 6.0 mph S9.7 kmh S 11.4 mph18.3 kmh 30.11 in1019.6 mb 0.00 in0.0 mm 0.00 in0.0 mm 0.15 in3.8 mm
09:39 AM 61.2°F16.2°C 50.2°F10.1°C 67% 3.1 mph SE5.0 kmh SE 9.8 mph15.8 kmh 30.11 in1019.6 mb 0.00 in0.0 mm 0.00 in0.0 mm 0.15 in3.8 mm
09:45 AM 61.5°F16.4°C 50.0°F10.0°C 66% 4.5 mph E7.2 kmh E 11.4 mph18.3 kmh 30.11 in1019.6 mb 0.00 in0.0 mm 0.00 in0.0 mm 0.15 in3.8 mm
09:50 AM 61.9°F16.6°C 50.0°F10.0°C 65% 3.1 mph SE5.0 kmh SE 8.3 mph13.4 kmh 30.11 in1019.6 mb 0.00 in0.0 mm 0.00 in0.0 mm 0.15 in3.8 mm
09:55 AM 63.3°F17.4°C 51.4°F10.8°C 65% 5.4 mph E8.7 kmh E 9.2 mph14.8 kmh 30.12 in1020.0 mb 0.00 in0.0 mm 0.00 in0.0 mm 0.15 in3.8 mm
10:00 AM 64.2°F17.9°C 51.8°F11.0°C 64% 4.5 mph E7.2 kmh E 10.7 mph17.2 kmh 30.12 in1020.0 mb 0.00 in0.0 mm 0.00 in0.0 mm 0.15 in3.8 mm
10:05 AM 65.5°F18.6°C 52.2°F11.2°C 62% 4.5 mph E7.2 kmh E 9.8 mph15.8 kmh 30.12 in1020.0 mb 0.00 in0.0 mm 0.00 in0.0 mm 0.15 in3.8 mm
10:10 AM 67.3°F19.6°C 52.9°F11.6°C 60% 4.5 mph NE7.2 kmh NE 7.6 mph12.2 kmh 30.12 in1020.0 mb 0.00 in0.0 mm 0.00 in0.0 mm 0.15 in3.8 mm
10:16 AM 66.9°F19.4°C 52.2°F11.2°C 59% 5.4 mph SE8.7 kmh SE 10.7 mph17.2 kmh 30.12 in1020.0 mb 0.00 in0.0 mm 0.00 in0.0 mm 0.15 in3.8 mm
10:21 AM 67.6°F19.8°C 52.9°F11.6°C 59% 4.5 mph NW7.2 kmh NW 12.1 mph19.5 kmh 30.13 in1020.3 mb 0.00 in0.0 mm 0.00 in0.0 mm 0.15 in3.8 mm
10:26 AM 68.2°F20.1°C 52.3°F11.3°C 57% 6.0 mph SE9.7 kmh SE 13.6 mph21.9 kmh 30.13 in1020.3 mb 0.00 in0.0 mm 0.00 in0.0 mm 0.15 in3.8 mm
10:31 AM 68.4°F20.2°C 51.6°F10.9°C 55% 7.6 mph SSE12.2 kmh SSE 12.1 mph19.5 kmh 30.13 in1020.3 mb 0.00 in0.0 mm 0.00 in0.0 mm 0.15 in3.8 mm
10:36 AM 68.7°F20.4°C 52.0°F11.1°C 55% 6.0 mph SE9.7 kmh SE 11.4 mph18.3 kmh 30.13 in1020.3 mb 0.00 in0.0 mm 0.00 in0.0 mm 0.15 in3.8 mm
10:41 AM 68.9°F20.5°C 51.6°F10.9°C 54% 3.8 mph E6.1 kmh E 9.8 mph15.8 kmh 30.12 in1020.0 mb 0.00 in0.0 mm 0.00 in0.0 mm 0.15 in3.8 mm
10:47 AM 68.9°F20.5°C 51.6°F10.9°C 54% 7.6 mph SE12.2 kmh SE 14.5 mph23.3 kmh 30.13 in1020.3 mb 0.00 in0.0 mm 0.00 in0.0 mm 0.15 in3.8 mm
10:52 AM 68.7°F20.4°C 52.0°F11.1°C 55% 6.0 mph SE9.7 kmh SE 13.0 mph20.9 kmh 30.14 in1020.7 mb 0.00 in0.0 mm 0.00 in0.0 mm 0.15 in3.8 mm
10:57 AM 69.6°F20.9°C 52.7°F11.5°C 55% 9.2 mph SW14.8 kmh SW 14.5 mph23.3 kmh 30.14 in1020.7 mb 0.00 in0.0 mm 0.00 in0.0 mm 0.15 in3.8 mm
11:02 AM 69.6°F20.9°C 52.7°F11.5°C 55% 8.3 mph SE13.4 kmh SE 13.0 mph20.9 kmh 30.13 in1020.3 mb 0.00 in0.0 mm 0.00 in0.0 mm 0.15 in3.8 mm
11:07 AM 68.9°F20.5°C 52.0°F11.1°C 55% 6.0 mph S9.7 kmh S 15.2 mph24.5 kmh 30.14 in1020.7 mb 0.00 in0.0 mm 0.00 in0.0 mm 0.15 in3.8 mm
11:12 AM 69.8°F21.0°C 52.0°F11.1°C 53% 6.0 mph E9.7 kmh E 15.9 mph25.6 kmh 30.13 in1020.3 mb 0.00 in0.0 mm 0.00 in0.0 mm 0.15 in3.8 mm
11:18 AM 70.9°F21.6°C 52.3°F11.3°C 52% 6.0 mph 9.7 kmh 15.2 mph24.5 kmh 30.14 in1020.7 mb 0.00 in0.0 mm 0.00 in0.0 mm 0.15 in3.8 mm
11:23 AM 70.3°F21.3°C 51.8°F11.0°C 52% 6.9 mph S11.1 kmh S 13.0 mph20.9 kmh 30.14 in1020.7 mb 0.00 in0.0 mm 0.00 in0.0 mm 0.15 in3.8 mm
11:28 AM 71.8°F22.1°C 53.2°F11.8°C 52% 10.7 mph SSE17.2 kmh SSE 13.0 mph20.9 kmh 30.13 in1020.3 mb 0.00 in0.0 mm 0.00 in0.0 mm 0.15 in3.8 mm
11:33 AM 70.7°F21.5°C 51.6°F10.9°C 51% 3.1 mph SE5.0 kmh SE 13.0 mph20.9 kmh 30.13 in1020.3 mb 0.00 in0.0 mm 0.00 in0.0 mm 0.15 in3.8 mm
11:38 AM 69.8°F21.0°C 51.4°F10.8°C 52% 10.7 mph S17.2 kmh S 13.6 mph21.9 kmh 30.14 in1020.7 mb 0.00 in0.0 mm 0.00 in0.0 mm 0.15 in3.8 mm
11:43 AM 70.0°F21.1°C 51.6°F10.9°C 52% 4.5 mph E7.2 kmh E 12.1 mph19.5 kmh 30.14 in1020.7 mb 0.00 in0.0 mm 0.00 in0.0 mm 0.15 in3.8 mm
11:49 AM 70.5°F21.4°C 50.9°F10.5°C 50% 6.9 mph SE11.1 kmh SE 12.1 mph19.5 kmh 30.14 in1020.7 mb 0.00 in0.0 mm 0.00 in0.0 mm 0.15 in3.8 mm
11:54 AM 71.6°F22.0°C 52.0°F11.1°C 50% 4.5 mph S7.2 kmh S 13.0 mph20.9 kmh 30.14 in1020.7 mb 0.00 in0.0 mm 0.00 in0.0 mm 0.15 in3.8 mm
11:59 AM 71.2°F21.8°C 51.6°F10.9°C 50% 5.4 mph SSW8.7 kmh SSW 13.6 mph21.9 kmh 30.14 in1020.7 mb 0.00 in0.0 mm 0.00 in0.0 mm 0.15 in3.8 mm
12:04 PM 72.7°F22.6°C 51.8°F11.0°C 48% 8.3 mph S13.4 kmh S 12.1 mph19.5 kmh 30.14 in1020.7 mb 0.00 in0.0 mm 0.00 in0.0 mm 0.15 in3.8 mm
12:09 PM 72.3°F22.4°C 51.4°F10.8°C 48% 6.9 mph E11.1 kmh E 12.1 mph19.5 kmh 30.14 in1020.7 mb 0.00 in0.0 mm 0.00 in0.0 mm 0.15 in3.8 mm
12:14 PM 72.0°F22.2°C 51.8°F11.0°C 49% 7.6 mph E12.2 kmh E 11.4 mph18.3 kmh 30.14 in1020.7 mb 0.00 in0.0 mm 0.00 in0.0 mm 0.15 in3.8 mm
12:20 PM 72.7°F22.6°C 52.3°F11.3°C 49% 6.0 mph E9.7 kmh E 9.8 mph15.8 kmh 30.14 in1020.7 mb 0.00 in0.0 mm 0.00 in0.0 mm 0.15 in3.8 mm
12:25 PM 73.0°F22.8°C 52.2°F11.2°C 48% 6.0 mph E9.7 kmh E 13.0 mph20.9 kmh 30.14 in1020.7 mb 0.00 in0.0 mm 0.00 in0.0 mm 0.15 in3.8 mm
12:30 PM 73.4°F23.0°C 51.4°F10.8°C 46% 7.6 mph SE12.2 kmh SE 12.1 mph19.5 kmh 30.14 in1020.7 mb 0.00 in0.0 mm 0.00 in0.0 mm 0.15 in3.8 mm
12:35 PM 73.8°F23.2°C 51.6°F10.9°C 46% 6.9 mph E11.1 kmh E 13.0 mph20.9 kmh 30.14 in1020.7 mb 0.00 in0.0 mm 0.00 in0.0 mm 0.15 in3.8 mm
12:40 PM 73.8°F23.2°C 51.6°F10.9°C 46% 9.8 mph E15.8 kmh E 13.6 mph21.9 kmh 30.13 in1020.3 mb 0.00 in0.0 mm 0.00 in0.0 mm 0.15 in3.8 mm
12:45 PM 74.1°F23.4°C 52.0°F11.1°C 46% 6.9 mph SSE11.1 kmh SSE 14.5 mph23.3 kmh 30.13 in1020.3 mb 0.00 in0.0 mm 0.00 in0.0 mm 0.15 in3.8 mm
12:51 PM 74.1°F23.4°C 50.9°F10.5°C 44% 7.6 mph E12.2 kmh E 16.8 mph27.0 kmh 30.13 in1020.3 mb 0.00 in0.0 mm 0.00 in0.0 mm 0.15 in3.8 mm
12:56 PM 74.3°F23.5°C 51.6°F10.9°C 45% 6.0 mph S9.7 kmh S 12.1 mph19.5 kmh 30.14 in1020.7 mb 0.00 in0.0 mm 0.00 in0.0 mm 0.15 in3.8 mm
01:01 PM 75.2°F24.0°C 51.8°F11.0°C 44% 7.6 mph SE12.2 kmh SE 13.6 mph21.9 kmh 30.13 in1020.3 mb 0.00 in0.0 mm 0.00 in0.0 mm 0.15 in3.8 mm
01:06 PM 75.0°F23.9°C 52.2°F11.2°C 45% 6.9 mph E11.1 kmh E 13.6 mph21.9 kmh 30.13 in1020.3 mb 0.00 in0.0 mm 0.00 in0.0 mm 0.15 in3.8 mm
01:11 PM 73.9°F23.3°C 51.3°F10.7°C 45% 6.0 mph SE9.7 kmh SE 13.6 mph21.9 kmh 30.12 in1020.0 mb 0.00 in0.0 mm 0.00 in0.0 mm 0.15 in3.8 mm
01:17 PM 74.8°F23.8°C 52.7°F11.5°C 46% 6.0 mph 9.7 kmh 10.7 mph17.2 kmh 30.12 in1020.0 mb 0.00 in0.0 mm 0.00 in0.0 mm 0.15 in3.8 mm
01:22 PM 74.8°F23.8°C 52.7°F11.5°C 46% 6.0 mph SE9.7 kmh SE 13.6 mph21.9 kmh 30.13 in1020.3 mb 0.00 in0.0 mm 0.00 in0.0 mm 0.15 in3.8 mm
01:27 PM 75.0°F23.9°C 52.2°F11.2°C 45% 4.5 mph E7.2 kmh E 13.6 mph21.9 kmh 30.13 in1020.3 mb 0.00 in0.0 mm 0.00 in0.0 mm 0.15 in3.8 mm
01:32 PM 75.6°F24.2°C 52.2°F11.2°C 44% 6.0 mph SE9.7 kmh SE 10.7 mph17.2 kmh 30.12 in1020.0 mb 0.00 in0.0 mm 0.00 in0.0 mm 0.15 in3.8 mm
01:37 PM 74.5°F23.6°C 51.8°F11.0°C 45% 4.5 mph SE7.2 kmh SE 12.1 mph19.5 kmh 30.13 in1020.3 mb 0.00 in0.0 mm 0.00 in0.0 mm 0.15 in3.8 mm
01:42 PM 74.7°F23.7°C 52.5°F11.4°C 46% 6.0 mph SE9.7 kmh SE 10.7 mph17.2 kmh 30.12 in1020.0 mb 0.00 in0.0 mm 0.00 in0.0 mm 0.15 in3.8 mm
01:48 PM 75.4°F24.1°C 52.0°F11.1°C 44% 5.4 mph E8.7 kmh E 14.5 mph23.3 kmh 30.12 in1020.0 mb 0.00 in0.0 mm 0.00 in0.0 mm 0.15 in3.8 mm
01:53 PM 74.8°F23.8°C 51.4°F10.8°C 44% 4.5 mph SW7.2 kmh SW 19.0 mph30.6 kmh 30.12 in1020.0 mb 0.00 in0.0 mm 0.00 in0.0 mm 0.15 in3.8 mm
01:58 PM 75.0°F23.9°C 51.6°F10.9°C 44% 6.0 mph S9.7 kmh S 16.8 mph27.0 kmh 30.12 in1020.0 mb 0.00 in0.0 mm 0.00 in0.0 mm 0.15 in3.8 mm
02:03 PM 74.8°F23.8°C 51.4°F10.8°C 44% 6.0 mph E9.7 kmh E 13.0 mph20.9 kmh 30.11 in1019.6 mb 0.00 in0.0 mm 0.00 in0.0 mm 0.15 in3.8 mm
02:08 PM 75.4°F24.1°C 51.3°F10.7°C 43% 6.9 mph E11.1 kmh E 13.6 mph21.9 kmh 30.11 in1019.6 mb 0.00 in0.0 mm 0.00 in0.0 mm 0.15 in3.8 mm
02:13 PM 75.6°F24.2°C 52.2°F11.2°C 44% 5.4 mph SE8.7 kmh SE 15.2 mph24.5 kmh 30.11 in1019.6 mb 0.00 in0.0 mm 0.00 in0.0 mm 0.15 in3.8 mm
02:19 PM 75.9°F24.4°C 53.6°F12.0°C 46% 9.8 mph S15.8 kmh S 16.8 mph27.0 kmh 30.11 in1019.6 mb 0.00 in0.0 mm 0.00 in0.0 mm 0.15 in3.8 mm
02:24 PM 75.6°F24.2°C 54.0°F12.2°C 47% 8.3 mph S13.4 kmh S 15.2 mph24.5 kmh 30.11 in1019.6 mb 0.00 in0.0 mm 0.00 in0.0 mm 0.15 in3.8 mm
02:29 PM 75.4°F24.1°C 53.2°F11.8°C 46% 5.4 mph SE8.7 kmh SE 15.2 mph24.5 kmh 30.11 in1019.6 mb 0.00 in0.0 mm 0.00 in0.0 mm 0.15 in3.8 mm
02:34 PM 76.3°F24.6°C 53.4°F11.9°C 45% 6.0 mph S9.7 kmh S 13.0 mph20.9 kmh 30.11 in1019.6 mb 0.00 in0.0 mm 0.00 in0.0 mm 0.15 in3.8 mm
02:54 PM 77.2°F25.1°C 53.6°F12.0°C 44% 9.2 mph SE14.8 kmh SE 13.0 mph20.9 kmh 30.10 in1019.3 mb 0.00 in0.0 mm 0.00 in0.0 mm 0.15 in3.8 mm
03:00 PM 76.6°F24.8°C 53.8°F12.1°C 45% 9.2 mph SE14.8 kmh SE 14.5 mph23.3 kmh 30.10 in1019.3 mb 0.00 in0.0 mm 0.00 in0.0 mm 0.15 in3.8 mm
03:05 PM 76.8°F24.9°C 53.8°F12.1°C 45% 6.0 mph E9.7 kmh E 13.6 mph21.9 kmh 30.10 in1019.3 mb 0.00 in0.0 mm 0.00 in0.0 mm 0.15 in3.8 mm
03:10 PM 77.4°F25.2°C 53.8°F12.1°C 44% 6.9 mph SE11.1 kmh SE 10.7 mph17.2 kmh 30.09 in1019.0 mb 0.00 in0.0 mm 0.00 in0.0 mm 0.15 in3.8 mm
03:15 PM 76.1°F24.5°C 52.5°F11.4°C 44% 9.8 mph SE15.8 kmh SE 13.6 mph21.9 kmh 30.10 in1019.3 mb 0.00 in0.0 mm 0.00 in0.0 mm 0.15 in3.8 mm
03:20 PM 76.3°F24.6°C 52.7°F11.5°C 44% 7.6 mph S12.2 kmh S 13.0 mph20.9 kmh 30.09 in1019.0 mb 0.00 in0.0 mm 0.00 in0.0 mm 0.15 in3.8 mm
03:25 PM 76.8°F24.9°C 53.8°F12.1°C 45% 3.8 mph SSE6.1 kmh SSE 15.2 mph24.5 kmh 30.09 in1019.0 mb 0.00 in0.0 mm 0.00 in0.0 mm 0.15 in3.8 mm
03:31 PM 77.4°F25.2°C 53.1°F11.7°C 43% 9.2 mph NE14.8 kmh NE 13.6 mph21.9 kmh 30.08 in1018.6 mb 0.00 in0.0 mm 0.00 in0.0 mm 0.15 in3.8 mm
03:36 PM 76.8°F24.9°C 53.2°F11.8°C 44% 9.2 mph E14.8 kmh E 14.5 mph23.3 kmh 30.08 in1018.6 mb 0.00 in0.0 mm 0.00 in0.0 mm 0.15 in3.8 mm
03:41 PM 75.7°F24.3°C 52.3°F11.3°C 44% 10.7 mph SE17.2 kmh SE 17.4 mph28.0 kmh 30.08 in1018.6 mb 0.00 in0.0 mm 0.00 in0.0 mm 0.15 in3.8 mm
03:46 PM 76.1°F24.5°C 52.5°F11.4°C 44% 8.3 mph S13.4 kmh S 17.4 mph28.0 kmh 30.08 in1018.6 mb 0.00 in0.0 mm 0.00 in0.0 mm 0.15 in3.8 mm
03:51 PM 76.8°F24.9°C 52.0°F11.1°C 42% 11.4 mph E18.3 kmh E 15.9 mph25.6 kmh 30.08 in1018.6 mb 0.00 in0.0 mm 0.00 in0.0 mm 0.15 in3.8 mm
03:57 PM 76.3°F24.6°C 52.2°F11.2°C 43% 9.8 mph E15.8 kmh E 15.2 mph24.5 kmh 30.08 in1018.6 mb 0.00 in0.0 mm 0.00 in0.0 mm 0.15 in3.8 mm
04:02 PM 76.1°F24.5°C 51.3°F10.7°C 42% 10.7 mph NE17.2 kmh NE 13.6 mph21.9 kmh 30.08 in1018.6 mb 0.00 in0.0 mm 0.00 in0.0 mm 0.15 in3.8 mm
04:07 PM 76.1°F24.5°C 51.3°F10.7°C 42% 6.9 mph ESE11.1 kmh ESE 13.0 mph20.9 kmh 30.08 in1018.6 mb 0.00 in0.0 mm 0.00 in0.0 mm 0.15 in3.8 mm
04:12 PM 76.1°F24.5°C 52.0°F11.1°C 43% 6.9 mph E11.1 kmh E 13.0 mph20.9 kmh 30.07 in1018.3 mb 0.00 in0.0 mm 0.00 in0.0 mm 0.15 in3.8 mm
04:17 PM 76.8°F24.9°C 52.7°F11.5°C 43% 7.6 mph E12.2 kmh E 12.1 mph19.5 kmh 30.07 in1018.3 mb 0.00 in0.0 mm 0.00 in0.0 mm 0.15 in3.8 mm
04:22 PM 76.6°F24.8°C 52.5°F11.4°C 43% 5.4 mph E8.7 kmh E 11.4 mph18.3 kmh 30.07 in1018.3 mb 0.00 in0.0 mm 0.00 in0.0 mm 0.15 in3.8 mm
04:28 PM 77.4°F25.2°C 52.5°F11.4°C 42% 6.0 mph E9.7 kmh E 9.2 mph14.8 kmh 30.06 in1017.9 mb 0.00 in0.0 mm 0.00 in0.0 mm 0.15 in3.8 mm
04:33 PM 77.0°F25.0°C 51.4°F10.8°C 41% 4.5 mph E7.2 kmh E 10.7 mph17.2 kmh 30.07 in1018.3 mb 0.00 in0.0 mm 0.00 in0.0 mm 0.15 in3.8 mm
04:38 PM 77.2°F25.1°C 51.6°F10.9°C 41% 6.9 mph E11.1 kmh E 13.6 mph21.9 kmh 30.06 in1017.9 mb 0.00 in0.0 mm 0.00 in0.0 mm 0.15 in3.8 mm
04:43 PM 77.4°F25.2°C 51.8°F11.0°C 41% 5.4 mph E8.7 kmh E 12.1 mph19.5 kmh 30.06 in1017.9 mb 0.00 in0.0 mm 0.00 in0.0 mm 0.15 in3.8 mm
04:48 PM 78.3°F25.7°C 53.2°F11.8°C 42% 3.8 mph SE6.1 kmh SE 10.7 mph17.2 kmh 30.06 in1017.9 mb 0.00 in0.0 mm 0.00 in0.0 mm 0.15 in3.8 mm
04:53 PM 78.3°F25.7°C 53.2°F11.8°C 42% 6.0 mph SE9.7 kmh SE 8.3 mph13.4 kmh 30.06 in1017.9 mb 0.00 in0.0 mm 0.00 in0.0 mm 0.15 in3.8 mm
04:59 PM 77.2°F25.1°C 51.6°F10.9°C 41% 4.5 mph SE7.2 kmh SE 13.0 mph20.9 kmh 30.06 in1017.9 mb 0.00 in0.0 mm 0.00 in0.0 mm 0.15 in3.8 mm
05:04 PM 76.6°F24.8°C 51.8°F11.0°C 42% 5.4 mph E8.7 kmh E 11.4 mph18.3 kmh 30.06 in1017.9 mb 0.00 in0.0 mm 0.00 in0.0 mm 0.15 in3.8 mm
05:09 PM 77.2°F25.1°C 51.6°F10.9°C 41% 7.6 mph E12.2 kmh E 13.0 mph20.9 kmh 30.06 in1017.9 mb 0.00 in0.0 mm 0.00 in0.0 mm 0.15 in3.8 mm
05:14 PM 77.5°F25.3°C 52.0°F11.1°C 41% 6.9 mph S11.1 kmh S 9.8 mph15.8 kmh 30.06 in1017.9 mb 0.00 in0.0 mm 0.00 in0.0 mm 0.15 in3.8 mm
05:19 PM 77.2°F25.1°C 51.6°F10.9°C 41% 3.8 mph E6.1 kmh E 14.5 mph23.3 kmh 30.06 in1017.9 mb 0.00 in0.0 mm 0.00 in0.0 mm 0.15 in3.8 mm
05:24 PM 77.0°F25.0°C 52.2°F11.2°C 42% 3.8 mph E6.1 kmh E 12.1 mph19.5 kmh 30.06 in1017.9 mb 0.00 in0.0 mm 0.00 in0.0 mm 0.15 in3.8 mm
05:30 PM 77.4°F25.2°C 52.5°F11.4°C 42% 6.0 mph E9.7 kmh E 10.7 mph17.2 kmh 30.06 in1017.9 mb 0.00 in0.0 mm 0.00 in0.0 mm 0.15 in3.8 mm
05:35 PM 77.2°F25.1°C 52.9°F11.6°C 43% 4.5 mph SE7.2 kmh SE 9.8 mph15.8 kmh 30.06 in1017.9 mb 0.00 in0.0 mm 0.00 in0.0 mm 0.15 in3.8 mm
05:40 PM 76.8°F24.9°C 53.2°F11.8°C 44% 3.8 mph E6.1 kmh E 9.8 mph15.8 kmh 30.06 in1017.9 mb 0.00 in0.0 mm 0.00 in0.0 mm 0.15 in3.8 mm
05:45 PM 76.1°F24.5°C 53.2°F11.8°C 45% 3.1 mph E5.0 kmh E 10.7 mph17.2 kmh 30.06 in1017.9 mb 0.00 in0.0 mm 0.00 in0.0 mm 0.15 in3.8 mm
05:50 PM 75.4°F24.1°C 52.5°F11.4°C 45% 4.5 mph SE7.2 kmh SE 8.3 mph13.4 kmh 30.06 in1017.9 mb 0.00 in0.0 mm 0.00 in0.0 mm 0.15 in3.8 mm
05:55 PM 75.6°F24.2°C 54.0°F12.2°C 47% 7.6 mph E12.2 kmh E 10.7 mph17.2 kmh 30.05 in1017.6 mb 0.00 in0.0 mm 0.00 in0.0 mm 0.15 in3.8 mm
06:01 PM 75.9°F24.4°C 53.6°F12.0°C 46% 6.9 mph SE11.1 kmh SE 10.7 mph17.2 kmh 30.06 in1017.9 mb 0.00 in0.0 mm 0.00 in0.0 mm 0.15 in3.8 mm
06:06 PM 75.4°F24.1°C 53.2°F11.8°C 46% 4.5 mph E7.2 kmh E 9.8 mph15.8 kmh 30.05 in1017.6 mb 0.00 in0.0 mm 0.00 in0.0 mm 0.15 in3.8 mm
06:11 PM 75.2°F24.0°C 53.6°F12.0°C 47% 8.3 mph ENE13.4 kmh ENE 11.4 mph18.3 kmh 30.05 in1017.6 mb 0.00 in0.0 mm 0.00 in0.0 mm 0.15 in3.8 mm
06:16 PM 75.2°F24.0°C 53.6°F12.0°C 47% 6.0 mph E9.7 kmh E 13.6 mph21.9 kmh 30.05 in1017.6 mb 0.00 in0.0 mm 0.00 in0.0 mm 0.15 in3.8 mm
06:21 PM 75.9°F24.4°C 54.3°F12.4°C 47% 5.4 mph S8.7 kmh S 9.2 mph14.8 kmh 30.05 in1017.6 mb 0.00 in0.0 mm 0.00 in0.0 mm 0.15 in3.8 mm
06:26 PM 76.3°F24.6°C 54.0°F12.2°C 46% 3.1 mph E5.0 kmh E 9.8 mph15.8 kmh 30.05 in1017.6 mb 0.00 in0.0 mm 0.00 in0.0 mm 0.15 in3.8 mm
06:32 PM 76.6°F24.8°C 53.8°F12.1°C 45% 6.0 mph SW9.7 kmh SW 10.7 mph17.2 kmh 30.05 in1017.6 mb 0.00 in0.0 mm 0.00 in0.0 mm 0.15 in3.8 mm
06:37 PM 76.3°F24.6°C 52.7°F11.5°C 44% 4.5 mph E7.2 kmh E 11.4 mph18.3 kmh 30.05 in1017.6 mb 0.00 in0.0 mm 0.00 in0.0 mm 0.15 in3.8 mm
06:42 PM 76.8°F24.9°C 52.7°F11.5°C 43% 7.6 mph SSW12.2 kmh SSW 10.7 mph17.2 kmh 30.06 in1017.9 mb 0.00 in0.0 mm 0.00 in0.0 mm 0.15 in3.8 mm
06:47 PM 77.0°F25.0°C 52.2°F11.2°C 42% 4.5 mph E7.2 kmh E 10.7 mph17.2 kmh 30.06 in1017.9 mb 0.00 in0.0 mm 0.00 in0.0 mm 0.15 in3.8 mm
06:52 PM 76.1°F24.5°C 54.3°F12.4°C 47% 11.4 mph ENE18.3 kmh ENE 16.8 mph27.0 kmh 30.06 in1017.9 mb 0.00 in0.0 mm 0.00 in0.0 mm 0.15 in3.8 mm
06:57 PM 74.3°F23.5°C 53.4°F11.9°C 48% 6.9 mph NE11.1 kmh NE 15.2 mph24.5 kmh 30.06 in1017.9 mb 0.00 in0.0 mm 0.00 in0.0 mm 0.15 in3.8 mm
07:03 PM 73.4°F23.0°C 52.0°F11.1°C 47% 9.8 mph NE15.8 kmh NE 13.6 mph21.9 kmh 30.06 in1017.9 mb 0.00 in0.0 mm 0.00 in0.0 mm 0.15 in3.8 mm
07:08 PM 72.3°F22.4°C 52.2°F11.2°C 49% 6.9 mph NE11.1 kmh NE 12.1 mph19.5 kmh 30.06 in1017.9 mb 0.00 in0.0 mm 0.00 in0.0 mm 0.15 in3.8 mm
07:13 PM 71.6°F22.0°C 52.5°F11.4°C 51% 5.4 mph ESE8.7 kmh ESE 8.3 mph13.4 kmh 30.06 in1017.9 mb 0.00 in0.0 mm 0.00 in0.0 mm 0.15 in3.8 mm
07:18 PM 72.0°F22.2°C 53.4°F11.9°C 52% 6.9 mph NE11.1 kmh NE 11.4 mph18.3 kmh 30.06 in1017.9 mb 0.00 in0.0 mm 0.00 in0.0 mm 0.15 in3.8 mm
07:23 PM 72.1°F22.3°C 53.6°F12.0°C 52% 4.5 mph NE7.2 kmh NE 11.4 mph18.3 kmh 30.06 in1017.9 mb 0.00 in0.0 mm 0.00 in0.0 mm 0.15 in3.8 mm
07:28 PM 72.0°F22.2°C 54.0°F12.2°C 53% 5.4 mph E8.7 kmh E 9.8 mph15.8 kmh 30.06 in1017.9 mb 0.00 in0.0 mm 0.00 in0.0 mm 0.15 in3.8 mm
07:34 PM 71.8°F22.1°C 53.8°F12.1°C 53% 7.6 mph E12.2 kmh E 9.8 mph15.8 kmh 30.07 in1018.3 mb 0.00 in0.0 mm 0.00 in0.0 mm 0.15 in3.8 mm
07:39 PM 71.6°F22.0°C 54.1°F12.3°C 54% 4.5 mph ESE7.2 kmh ESE 7.6 mph12.2 kmh 30.06 in1017.9 mb 0.00 in0.0 mm 0.00 in0.0 mm 0.15 in3.8 mm
07:44 PM 70.9°F21.6°C 54.0°F12.2°C 55% 5.4 mph E8.7 kmh E 8.3 mph13.4 kmh 30.07 in1018.3 mb 0.00 in0.0 mm 0.00 in0.0 mm 0.15 in3.8 mm
07:49 PM 70.5°F21.4°C 54.1°F12.3°C 56% 4.5 mph E7.2 kmh E 8.3 mph13.4 kmh 30.07 in1018.3 mb 0.00 in0.0 mm 0.00 in0.0 mm 0.15 in3.8 mm
07:54 PM 70.2°F21.2°C 54.1°F12.3°C 57% 3.1 mph NE5.0 kmh NE 7.6 mph12.2 kmh 30.07 in1018.3 mb 0.00 in0.0 mm 0.00 in0.0 mm 0.15 in3.8 mm
07:59 PM 70.0°F21.1°C 54.0°F12.2°C 57% 3.8 mph NE6.1 kmh NE 7.6 mph12.2 kmh 30.07 in1018.3 mb 0.00 in0.0 mm 0.00 in0.0 mm 0.15 in3.8 mm
08:05 PM 69.4°F20.8°C 54.0°F12.2°C 58% 3.1 mph E5.0 kmh E 6.0 mph9.7 kmh 30.07 in1018.3 mb 0.00 in0.0 mm 0.00 in0.0 mm 0.15 in3.8 mm
08:10 PM 68.9°F20.5°C 53.6°F12.0°C 58% 3.8 mph ENE6.1 kmh ENE 6.0 mph9.7 kmh 30.08 in1018.6 mb 0.00 in0.0 mm 0.00 in0.0 mm 0.15 in3.8 mm
08:15 PM 68.9°F20.5°C 53.1°F11.7°C 57% 4.5 mph E7.2 kmh E 7.6 mph12.2 kmh 30.08 in1018.6 mb 0.00 in0.0 mm 0.00 in0.0 mm 0.15 in3.8 mm
08:20 PM 68.9°F20.5°C 53.1°F11.7°C 57% 2.2 mph E3.5 kmh E 5.4 mph8.7 kmh 30.08 in1018.6 mb 0.00 in0.0 mm 0.00 in0.0 mm 0.15 in3.8 mm
08:25 PM 68.7°F20.4°C 52.9°F11.6°C 57% 2.2 mph E3.5 kmh E 5.4 mph8.7 kmh 30.08 in1018.6 mb 0.00 in0.0 mm 0.00 in0.0 mm 0.15 in3.8 mm
08:30 PM 68.4°F20.2°C 52.5°F11.4°C 57% 4.5 mph E7.2 kmh E 7.6 mph12.2 kmh 30.08 in1018.6 mb 0.00 in0.0 mm 0.00 in0.0 mm 0.15 in3.8 mm
08:36 PM 68.2°F20.1°C 52.3°F11.3°C 57% 3.8 mph E6.1 kmh E 6.9 mph11.1 kmh 30.09 in1019.0 mb 0.00 in0.0 mm 0.00 in0.0 mm 0.15 in3.8 mm
08:41 PM 67.8°F19.9°C 52.9°F11.6°C 59% 3.8 mph ESE6.1 kmh ESE 6.0 mph9.7 kmh 30.09 in1019.0 mb 0.00 in0.0 mm 0.00 in0.0 mm 0.15 in3.8 mm
08:46 PM 67.5°F19.7°C 52.7°F11.5°C 59% 3.1 mph NE5.0 kmh NE 6.0 mph9.7 kmh 30.09 in1019.0 mb 0.00 in0.0 mm 0.00 in0.0 mm 0.15 in3.8 mm
08:51 PM 67.3°F19.6°C 52.9°F11.6°C 60% 1.6 mph NE2.6 kmh NE 4.5 mph7.2 kmh 30.09 in1019.0 mb 0.00 in0.0 mm 0.00 in0.0 mm 0.15 in3.8 mm
08:56 PM 67.1°F19.5°C 52.7°F11.5°C 60% 3.8 mph NE6.1 kmh NE 5.4 mph8.7 kmh 30.09 in1019.0 mb 0.00 in0.0 mm 0.00 in0.0 mm 0.15 in3.8 mm
09:01 PM 66.7°F19.3°C 52.3°F11.3°C 60% 5.4 mph NE8.7 kmh NE 6.0 mph9.7 kmh 30.09 in1019.0 mb 0.00 in0.0 mm 0.00 in0.0 mm 0.15 in3.8 mm
09:07 PM 66.4°F19.1°C 52.5°F11.4°C 61% 4.5 mph NE7.2 kmh NE 7.6 mph12.2 kmh 30.09 in1019.0 mb 0.00 in0.0 mm 0.00 in0.0 mm 0.15 in3.8 mm
09:12 PM 66.2°F19.0°C 52.3°F11.3°C 61% 3.1 mph NE5.0 kmh NE 8.3 mph13.4 kmh 30.10 in1019.3 mb 0.00 in0.0 mm 0.00 in0.0 mm 0.15 in3.8 mm
09:17 PM 66.0°F18.9°C 52.7°F11.5°C 62% 3.1 mph NE5.0 kmh NE 6.0 mph9.7 kmh 30.10 in1019.3 mb 0.00 in0.0 mm 0.00 in0.0 mm 0.15 in3.8 mm
09:22 PM 65.8°F18.8°C 52.9°F11.6°C 63% 3.1 mph NE5.0 kmh NE 6.9 mph11.1 kmh 30.10 in1019.3 mb 0.00 in0.0 mm 0.00 in0.0 mm 0.15 in3.8 mm
09:27 PM 65.7°F18.7°C 52.7°F11.5°C 63% 3.1 mph E5.0 kmh E 6.9 mph11.1 kmh 30.11 in1019.6 mb 0.00 in0.0 mm 0.00 in0.0 mm 0.15 in3.8 mm
09:33 PM 65.7°F18.7°C 52.7°F11.5°C 63% 3.1 mph E5.0 kmh E 6.0 mph9.7 kmh 30.11 in1019.6 mb 0.00 in0.0 mm 0.00 in0.0 mm 0.15 in3.8 mm
09:38 PM 65.5°F18.6°C 52.5°F11.4°C 63% 3.8 mph NE6.1 kmh NE 4.5 mph7.2 kmh 30.11 in1019.6 mb 0.00 in0.0 mm 0.00 in0.0 mm 0.15 in3.8 mm
09:43 PM 65.5°F18.6°C 52.5°F11.4°C 63% 1.6 mph ENE2.6 kmh ENE 6.0 mph9.7 kmh 30.11 in1019.6 mb 0.00 in0.0 mm 0.00 in0.0 mm 0.15 in3.8 mm
09:48 PM 65.3°F18.5°C 52.3°F11.3°C 63% 1.6 mph NE2.6 kmh NE 4.5 mph7.2 kmh 30.11 in1019.6 mb 0.00 in0.0 mm 0.00 in0.0 mm 0.15 in3.8 mm
09:53 PM 65.3°F18.5°C 52.3°F11.3°C 63% 2.2 mph E3.5 kmh E 4.5 mph7.2 kmh 30.11 in1019.6 mb 0.00 in0.0 mm 0.00 in0.0 mm 0.15 in3.8 mm
09:58 PM 65.1°F18.4°C 52.7°F11.5°C 64% 2.2 mph NE3.5 kmh NE 4.5 mph7.2 kmh 30.12 in1020.0 mb 0.00 in0.0 mm 0.00 in0.0 mm 0.15 in3.8 mm
10:04 PM 64.9°F18.3°C 52.5°F11.4°C 64% 2.2 mph NE3.5 kmh NE 4.5 mph7.2 kmh 30.12 in1020.0 mb 0.00 in0.0 mm 0.00 in0.0 mm 0.15 in3.8 mm
10:09 PM 64.8°F18.2°C 52.3°F11.3°C 64% 2.2 mph NE3.5 kmh NE 3.8 mph6.1 kmh 30.12 in1020.0 mb 0.00 in0.0 mm 0.00 in0.0 mm 0.15 in3.8 mm
10:14 PM 64.6°F18.1°C 52.2°F11.2°C 64% 2.2 mph NE3.5 kmh NE 4.5 mph7.2 kmh 30.12 in1020.0 mb 0.00 in0.0 mm 0.00 in0.0 mm 0.15 in3.8 mm
10:19 PM 64.4°F18.0°C 52.0°F11.1°C 64% 0.7 mph SE1.1 kmh SE 3.1 mph5.0 kmh 30.12 in1020.0 mb 0.00 in0.0 mm 0.00 in0.0 mm 0.15 in3.8 mm
10:24 PM 64.4°F18.0°C 52.0°F11.1°C 64% Calm Calm 3.1 mph5.0 kmh 30.12 in1020.0 mb 0.00 in0.0 mm 0.00 in0.0 mm 0.15 in3.8 mm
10:29 PM 64.4°F18.0°C 52.3°F11.3°C 65% Calm Calm 1.6 mph2.6 kmh 30.13 in1020.3 mb 0.00 in0.0 mm 0.00 in0.0 mm 0.15 in3.8 mm
10:35 PM 64.2°F17.9°C 52.7°F11.5°C 66% 0.7 mph NE1.1 kmh NE 2.2 mph3.5 kmh 30.13 in1020.3 mb 0.00 in0.0 mm 0.00 in0.0 mm 0.15 in3.8 mm
10:40 PM 64.2°F17.9°C 52.7°F11.5°C 66% 1.6 mph NE2.6 kmh NE 2.2 mph3.5 kmh 30.13 in1020.3 mb 0.00 in0.0 mm 0.00 in0.0 mm 0.15 in3.8 mm
10:45 PM 64.2°F17.9°C 52.7°F11.5°C 66% 0.7 mph E1.1 kmh E 3.1 mph5.0 kmh 30.13 in1020.3 mb 0.00 in0.0 mm 0.00 in0.0 mm 0.15 in3.8 mm
10:50 PM 64.0°F17.8°C 52.5°F11.4°C 66% 0.7 mph E1.1 kmh E 2.2 mph3.5 kmh 30.13 in1020.3 mb 0.00 in0.0 mm 0.00 in0.0 mm 0.15 in3.8 mm
10:55 PM 64.4°F18.0°C 52.3°F11.3°C 65% 2.2 mph E3.5 kmh E 3.1 mph5.0 kmh 30.13 in1020.3 mb 0.00 in0.0 mm 0.00 in0.0 mm 0.15 in3.8 mm
11:00 PM 64.6°F18.1°C 52.5°F11.4°C 65% 1.6 mph NE2.6 kmh NE 3.8 mph6.1 kmh 30.13 in1020.3 mb 0.00 in0.0 mm 0.00 in0.0 mm 0.15 in3.8 mm
11:06 PM 64.6°F18.1°C 52.5°F11.4°C 65% 2.2 mph E3.5 kmh E 3.8 mph6.1 kmh 30.13 in1020.3 mb 0.00 in0.0 mm 0.00 in0.0 mm 0.15 in3.8 mm
11:11 PM 64.6°F18.1°C 52.5°F11.4°C 65% 1.6 mph E2.6 kmh E 3.8 mph6.1 kmh 30.13 in1020.3 mb 0.00 in0.0 mm 0.00 in0.0 mm 0.15 in3.8 mm
11:16 PM 64.4°F18.0°C 52.3°F11.3°C 65% 0.7 mph E1.1 kmh E 3.1 mph5.0 kmh 30.13 in1020.3 mb 0.00 in0.0 mm 0.00 in0.0 mm 0.15 in3.8 mm
11:21 PM 64.0°F17.8°C 52.5°F11.4°C 66% 0.7 mph E1.1 kmh E 1.6 mph2.6 kmh 30.13 in1020.3 mb 0.00 in0.0 mm 0.00 in0.0 mm 0.15 in3.8 mm
11:26 PM 63.7°F17.6°C 52.2°F11.2°C 66% 0.7 mph S1.1 kmh S 2.2 mph3.5 kmh 30.13 in1020.3 mb 0.00 in0.0 mm 0.00 in0.0 mm 0.15 in3.8 mm
11:31 PM 63.5°F17.5°C 52.3°F11.3°C 67% 0.7 mph NE1.1 kmh NE 2.2 mph3.5 kmh 30.13 in1020.3 mb 0.00 in0.0 mm 0.00 in0.0 mm 0.15 in3.8 mm
11:37 PM 63.5°F17.5°C 52.3°F11.3°C 67% Calm Calm 1.6 mph2.6 kmh 30.13 in1020.3 mb 0.00 in0.0 mm 0.00 in0.0 mm 0.15 in3.8 mm
11:42 PM 63.3°F17.4°C 52.2°F11.2°C 67% Calm Calm 1.6 mph2.6 kmh 30.13 in1020.3 mb 0.00 in0.0 mm 0.00 in0.0 mm 0.15 in3.8 mm
11:47 PM 63.1°F17.3°C 52.0°F11.1°C 67% 0.7 mph SE1.1 kmh SE 1.6 mph2.6 kmh 30.13 in1020.3 mb 0.00 in0.0 mm 0.00 in0.0 mm 0.15 in3.8 mm
11:52 PM 63.1°F17.3°C 52.3°F11.3°C 68% 0.7 mph S1.1 kmh S 2.2 mph3.5 kmh 30.13 in1020.3 mb 0.00 in0.0 mm 0.00 in0.0 mm 0.15 in3.8 mm
11:57 PM 63.0°F17.2°C 52.2°F11.2°C 68% 0.7 mph E1.1 kmh E 3.1 mph5.0 kmh 30.13 in1020.3 mb 0.00 in0.0 mm 0.00 in0.0 mm 0.15 in3.8 mm